createdAt,value
2023-05-09T00:00:14.469Z,9.08
2023-05-09T00:01:14.351Z,9.06
2023-05-09T00:02:14.666Z,8.99
2023-05-09T00:03:14.529Z,8.96
2023-05-09T00:04:14.321Z,8.87
2023-05-09T00:05:14.686Z,8.84
2023-05-09T00:06:14.322Z,8.84
2023-05-09T00:07:14.433Z,8.84
2023-05-09T00:08:14.139Z,8.81
2023-05-09T00:09:14.331Z,8.80
2023-05-09T00:10:14.365Z,8.80
2023-05-09T00:11:14.314Z,8.78
2023-05-09T00:12:14.367Z,8.78
2023-05-09T00:13:14.306Z,8.77
2023-05-09T00:14:14.170Z,8.77
2023-05-09T00:15:14.517Z,8.77
2023-05-09T00:16:14.332Z,8.73
2023-05-09T00:17:14.279Z,8.70
2023-05-09T00:18:14.190Z,8.72
2023-05-09T00:19:14.008Z,8.64
2023-05-09T00:20:14.171Z,8.66
2023-05-09T00:21:14.011Z,8.70
2023-05-09T00:22:14.301Z,8.64
2023-05-09T00:23:14.081Z,8.63
2023-05-09T00:24:14.112Z,8.63
2023-05-09T00:25:14.259Z,8.67
2023-05-09T00:26:14.146Z,8.69
2023-05-09T00:27:14.020Z,8.70
2023-05-09T00:28:14.119Z,8.70
2023-05-09T00:29:14.082Z,8.66
2023-05-09T00:30:14.092Z,8.64
2023-05-09T00:31:13.990Z,8.60
2023-05-09T00:32:14.111Z,8.60
2023-05-09T00:33:14.009Z,8.62
2023-05-09T00:34:14.939Z,8.67
2023-05-09T00:35:14.269Z,8.69
2023-05-09T00:36:13.842Z,8.73
2023-05-09T00:37:14.029Z,8.67
2023-05-09T00:38:14.011Z,8.59
2023-05-09T00:39:13.988Z,8.52
2023-05-09T00:40:13.917Z,8.51
2023-05-09T00:41:13.959Z,8.54
2023-05-09T00:42:14.821Z,8.51
2023-05-09T00:43:14.978Z,8.51
2023-05-09T00:44:13.868Z,8.49
2023-05-09T00:45:14.195Z,8.48
2023-05-09T00:46:14.987Z,8.52
2023-05-09T00:47:13.918Z,8.45
2023-05-09T00:48:14.829Z,8.38
2023-05-09T00:49:13.860Z,8.30
2023-05-09T00:50:13.991Z,8.34
2023-05-09T00:51:13.809Z,8.34
2023-05-09T00:52:14.084Z,8.39
2023-05-09T00:53:13.642Z,8.45
2023-05-09T00:54:13.820Z,8.44
2023-05-09T00:55:14.010Z,8.44
2023-05-09T00:56:13.870Z,8.33
2023-05-09T00:57:13.679Z,8.29
2023-05-09T00:58:13.988Z,8.27
2023-05-09T00:59:14.225Z,8.20
2023-05-09T01:00:13.797Z,8.15
2023-05-09T01:01:13.822Z,8.11
2023-05-09T01:02:13.942Z,8.11
2023-05-09T01:03:14.757Z,8.09
2023-05-09T01:04:14.589Z,8.12
2023-05-09T01:05:15.165Z,8.12
2023-05-09T01:06:13.509Z,8.09
2023-05-09T01:07:12.906Z,8.15
2023-05-09T01:08:13.590Z,8.09
2023-05-09T01:09:13.670Z,8.04
2023-05-09T01:10:13.688Z,8.02
2023-05-09T01:11:13.742Z,8.05
2023-05-09T01:12:13.481Z,8.09
2023-05-09T01:13:13.674Z,8.05
2023-05-09T01:14:13.569Z,7.97
2023-05-09T01:15:13.799Z,8.04
2023-05-09T01:16:13.631Z,8.05
2023-05-09T01:17:13.807Z,8.09
2023-05-09T01:18:13.645Z,8.12
2023-05-09T01:19:13.511Z,8.08
2023-05-09T01:20:13.800Z,8.11
2023-05-09T01:21:13.514Z,8.12
2023-05-09T01:22:14.602Z,8.05
2023-05-09T01:23:13.359Z,8.06
2023-05-09T01:24:13.679Z,8.09
2023-05-09T01:25:13.689Z,8.04
2023-05-09T01:26:13.629Z,7.97
2023-05-09T01:27:13.384Z,7.98
2023-05-09T01:28:14.020Z,7.94
2023-05-09T01:29:14.075Z,7.94
2023-05-09T01:30:13.432Z,7.93
2023-05-09T01:31:13.631Z,7.93
2023-05-09T01:32:13.433Z,7.94
2023-05-09T01:33:13.380Z,7.91
2023-05-09T01:34:13.512Z,7.88
2023-05-09T01:35:13.636Z,7.84
2023-05-09T01:36:13.244Z,7.87
2023-05-09T01:37:13.392Z,7.86
2023-05-09T01:38:13.433Z,7.86
2023-05-09T01:39:13.505Z,7.79
2023-05-09T01:40:13.650Z,7.79
2023-05-09T01:41:13.812Z,7.80
2023-05-09T01:42:13.231Z,7.78
2023-05-09T01:43:13.324Z,7.75
2023-05-09T01:44:13.268Z,7.64
2023-05-09T01:45:14.687Z,7.64
2023-05-09T01:46:13.342Z,7.64
2023-05-09T01:47:13.346Z,7.60
2023-05-09T01:48:13.203Z,7.68
2023-05-09T01:49:13.110Z,7.68
2023-05-09T01:50:14.311Z,7.68
2023-05-09T01:51:13.753Z,7.72
2023-05-09T01:52:13.603Z,7.68
2023-05-09T01:53:13.691Z,7.69
2023-05-09T01:54:13.207Z,7.64
2023-05-09T01:55:13.303Z,7.70
2023-05-09T01:56:14.161Z,7.70
2023-05-09T01:57:14.018Z,7.70
2023-05-09T01:58:14.315Z,7.69
2023-05-09T01:59:13.101Z,7.64
2023-05-09T02:00:14.343Z,7.62
2023-05-09T02:01:14.149Z,7.60
2023-05-09T02:02:14.252Z,7.68
2023-05-09T02:03:13.141Z,7.68
2023-05-09T02:04:13.118Z,7.62
2023-05-09T02:05:13.456Z,7.56
2023-05-09T02:06:14.111Z,7.54
2023-05-09T02:07:14.060Z,7.56
2023-05-09T02:08:14.105Z,7.56
2023-05-09T02:09:14.121Z,7.54
2023-05-09T02:10:14.032Z,7.50
2023-05-09T02:11:13.153Z,7.49
2023-05-09T02:12:12.872Z,7.46
2023-05-09T02:13:13.137Z,7.44
2023-05-09T02:14:12.990Z,7.42
2023-05-09T02:15:13.462Z,7.42
2023-05-09T02:16:12.958Z,7.41
2023-05-09T02:17:13.121Z,7.36
2023-05-09T02:18:12.871Z,7.32
2023-05-09T02:19:12.760Z,7.29
2023-05-09T02:20:13.032Z,7.25
2023-05-09T02:21:13.084Z,7.10
2023-05-09T02:22:12.850Z,7.07
2023-05-09T02:23:12.690Z,7.03
2023-05-09T02:24:12.970Z,7.03
2023-05-09T02:25:12.805Z,7.02
2023-05-09T02:26:13.143Z,7.07
2023-05-09T02:27:12.817Z,7.07
2023-05-09T02:28:12.860Z,7.13
2023-05-09T02:29:12.651Z,7.13
2023-05-09T02:30:12.808Z,7.16
2023-05-09T02:31:12.678Z,7.13
2023-05-09T02:32:13.080Z,7.07
2023-05-09T02:33:12.764Z,7.00
2023-05-09T02:34:12.730Z,6.98
2023-05-09T02:35:12.870Z,7.00
2023-05-09T02:36:12.752Z,6.98
2023-05-09T02:37:12.831Z,6.96
2023-05-09T02:38:13.251Z,6.98
2023-05-09T02:39:12.739Z,7.02
2023-05-09T02:40:12.618Z,6.98
2023-05-09T02:41:12.839Z,7.05
2023-05-09T02:42:12.648Z,7.11
2023-05-09T02:43:12.809Z,7.10
2023-05-09T02:44:12.749Z,7.14
2023-05-09T02:45:12.793Z,7.14
2023-05-09T02:46:13.702Z,7.17
2023-05-09T02:47:13.640Z,7.14
2023-05-09T02:48:12.595Z,7.16
2023-05-09T02:49:22.699Z,7.11
2023-05-09T02:50:13.621Z,7.13
2023-05-09T02:51:13.499Z,7.18
2023-05-09T02:52:13.594Z,7.20
2023-05-09T02:53:13.430Z,7.13
2023-05-09T02:54:12.750Z,7.05
2023-05-09T02:55:12.789Z,7.05
2023-05-09T02:56:12.561Z,7.00
2023-05-09T02:57:12.519Z,7.02
2023-05-09T02:58:14.983Z,7.02
2023-05-09T02:59:13.590Z,6.96
2023-05-09T03:00:12.561Z,6.96
2023-05-09T03:01:12.461Z,6.95
2023-05-09T03:02:12.580Z,6.96
2023-05-09T03:03:12.451Z,6.93
2023-05-09T03:04:12.332Z,7.05
2023-05-09T03:05:12.521Z,6.99
2023-05-09T03:06:12.363Z,7.03
2023-05-09T03:07:12.550Z,7.05
2023-05-09T03:08:12.319Z,7.03
2023-05-09T03:09:13.397Z,7.00
2023-05-09T03:10:12.235Z,6.96
2023-05-09T03:11:13.433Z,6.96
2023-05-09T03:12:13.386Z,6.91
2023-05-09T03:13:13.566Z,6.88
2023-05-09T03:14:13.359Z,6.89
2023-05-09T03:15:13.696Z,6.91
2023-05-09T03:16:13.448Z,6.91
2023-05-09T03:17:13.315Z,6.84
2023-05-09T03:18:13.339Z,6.78
2023-05-09T03:19:12.322Z,6.85
2023-05-09T03:20:13.285Z,6.83
2023-05-09T03:21:13.232Z,6.81
2023-05-09T03:22:13.187Z,6.85
2023-05-09T03:23:12.722Z,6.84
2023-05-09T03:24:12.334Z,6.85
2023-05-09T03:25:12.225Z,6.88
2023-05-09T03:26:12.201Z,6.92
2023-05-09T03:27:13.165Z,6.92
2023-05-09T03:28:12.197Z,6.91
2023-05-09T03:29:12.168Z,6.91
2023-05-09T03:30:12.317Z,6.93
2023-05-09T03:31:12.165Z,6.95
2023-05-09T03:32:15.111Z,6.99
2023-05-09T03:33:13.089Z,7.00
2023-05-09T03:34:13.164Z,6.95
2023-05-09T03:35:13.480Z,6.95
2023-05-09T03:36:12.940Z,6.95
2023-05-09T03:37:13.110Z,7.00
2023-05-09T03:38:13.001Z,7.03
2023-05-09T03:39:13.362Z,7.10
2023-05-09T03:40:13.055Z,7.11
2023-05-09T03:41:13.236Z,7.08
2023-05-09T03:42:11.911Z,7.11
2023-05-09T03:43:12.086Z,7.14
2023-05-09T03:44:12.955Z,7.16
2023-05-09T03:45:13.252Z,7.17
2023-05-09T03:46:12.948Z,7.16
2023-05-09T03:47:12.975Z,7.11
2023-05-09T03:48:13.158Z,7.16
2023-05-09T03:49:13.031Z,7.26
2023-05-09T03:50:12.881Z,7.31
2023-05-09T03:51:11.890Z,7.36
2023-05-09T03:52:12.974Z,7.36
2023-05-09T03:53:12.798Z,7.38
2023-05-09T03:54:13.004Z,7.44
2023-05-09T03:55:11.769Z,7.52
2023-05-09T03:56:11.917Z,7.62
2023-05-09T03:57:12.910Z,7.73
2023-05-09T03:58:12.979Z,7.72
2023-05-09T03:59:12.904Z,7.60
2023-05-09T04:00:13.010Z,7.69
2023-05-09T04:01:11.720Z,7.68
2023-05-09T04:02:11.932Z,7.72
2023-05-09T04:03:12.822Z,7.84
2023-05-09T04:04:12.816Z,7.88
2023-05-09T04:05:13.028Z,7.88
2023-05-09T04:06:12.742Z,7.80
2023-05-09T04:07:12.711Z,7.84
2023-05-09T04:08:12.633Z,7.97
2023-05-09T04:09:11.803Z,7.93
2023-05-09T04:10:12.627Z,7.72
2023-05-09T04:11:11.751Z,7.73
2023-05-09T04:12:12.663Z,7.70
2023-05-09T04:13:12.935Z,7.75
2023-05-09T04:14:12.731Z,7.80
2023-05-09T04:15:11.820Z,7.84
2023-05-09T04:16:12.319Z,7.84
2023-05-09T04:17:11.686Z,7.93
2023-05-09T04:18:12.339Z,7.97
2023-05-09T04:19:11.743Z,8.08
2023-05-09T04:20:11.616Z,8.15
2023-05-09T04:21:11.651Z,8.11
2023-05-09T04:22:12.094Z,8.05
2023-05-09T04:23:11.557Z,7.97
2023-05-09T04:24:11.669Z,7.88
2023-05-09T04:25:11.470Z,7.91
2023-05-09T04:26:12.644Z,7.98
2023-05-09T04:27:12.582Z,7.98
2023-05-09T04:28:12.476Z,7.97
2023-05-09T04:29:11.565Z,8.05
2023-05-09T04:30:12.409Z,8.11
2023-05-09T04:31:12.273Z,8.16
2023-05-09T04:32:11.622Z,8.18
2023-05-09T04:33:12.518Z,8.23
2023-05-09T04:34:11.467Z,8.33
2023-05-09T04:35:11.691Z,8.36
2023-05-09T04:36:11.345Z,8.44
2023-05-09T04:37:11.475Z,8.55
2023-05-09T04:38:12.314Z,8.70
2023-05-09T04:39:12.347Z,8.66
2023-05-09T04:40:11.382Z,8.70
2023-05-09T04:41:11.513Z,8.78
2023-05-09T04:42:11.564Z,8.88
2023-05-09T04:43:11.534Z,8.98
2023-05-09T04:44:11.464Z,9.16
2023-05-09T04:45:11.696Z,9.19
2023-05-09T04:46:12.417Z,9.21
2023-05-09T04:47:12.337Z,9.22
2023-05-09T04:48:12.307Z,9.28
2023-05-09T04:49:11.387Z,9.29
2023-05-09T04:50:11.504Z,9.29
2023-05-09T04:51:12.050Z,9.34
2023-05-09T04:52:11.366Z,9.29
2023-05-09T04:53:11.103Z,9.46
2023-05-09T04:54:11.322Z,9.61
2023-05-09T04:55:11.824Z,9.59
2023-05-09T04:56:11.400Z,9.61
2023-05-09T04:57:17.971Z,9.58
2023-05-09T04:58:11.273Z,9.64
2023-05-09T04:59:11.149Z,9.65
2023-05-09T05:00:11.264Z,9.62
2023-05-09T05:01:11.224Z,9.58
2023-05-09T05:02:11.356Z,9.40
2023-05-09T05:03:11.167Z,9.42
2023-05-09T05:04:11.288Z,9.54
2023-05-09T05:05:12.728Z,9.59
2023-05-09T05:06:12.086Z,9.61
2023-05-09T05:07:11.113Z,9.65
2023-05-09T05:08:12.020Z,9.69
2023-05-09T05:09:11.134Z,9.70
2023-05-09T05:10:10.993Z,9.76
2023-05-09T05:11:11.163Z,9.95
2023-05-09T05:12:11.010Z,10.09
2023-05-09T05:13:11.250Z,10.22
2023-05-09T05:14:11.037Z,10.43
2023-05-09T05:15:11.092Z,10.59
2023-05-09T05:16:11.965Z,10.60
2023-05-09T05:17:12.025Z,10.82
2023-05-09T05:18:11.366Z,10.95
2023-05-09T05:19:11.095Z,11.12
2023-05-09T05:20:12.200Z,11.81
2023-05-09T05:21:10.767Z,12.02
2023-05-09T05:22:11.112Z,12.28
2023-05-09T05:23:11.156Z,12.50
2023-05-09T05:24:11.063Z,12.39
2023-05-09T05:25:10.891Z,11.88
2023-05-09T05:26:11.074Z,11.84
2023-05-09T05:27:10.856Z,11.80
2023-05-09T05:28:11.044Z,12.10
2023-05-09T05:29:10.824Z,12.58
2023-05-09T05:30:10.982Z,13.09
2023-05-09T05:31:10.895Z,14.22
2023-05-09T05:32:11.018Z,14.77
2023-05-09T05:33:11.075Z,15.03
2023-05-09T05:34:10.950Z,15.75
2023-05-09T05:35:10.821Z,15.87
2023-05-09T05:36:11.206Z,15.83
2023-05-09T05:37:10.842Z,15.85
2023-05-09T05:38:10.714Z,16.47
2023-05-09T05:39:11.040Z,16.98
2023-05-09T05:40:10.691Z,17.17
2023-05-09T05:41:10.881Z,16.87
2023-05-09T05:42:10.613Z,16.21
2023-05-09T05:43:10.894Z,16.46
2023-05-09T05:44:10.625Z,16.39
2023-05-09T05:45:10.827Z,16.68
2023-05-09T05:46:10.900Z,17.14
2023-05-09T05:47:10.949Z,17.05
2023-05-09T05:48:10.805Z,16.82
2023-05-09T05:49:10.892Z,17.09
2023-05-09T05:50:10.612Z,17.08
2023-05-09T05:51:10.532Z,16.61
2023-05-09T05:52:10.670Z,16.28
2023-05-09T05:53:10.490Z,16.38
2023-05-09T05:54:10.853Z,16.50
2023-05-09T05:55:10.600Z,16.46
2023-05-09T05:56:10.691Z,16.65
2023-05-09T05:57:10.564Z,16.96
2023-05-09T05:58:10.713Z,16.29
2023-05-09T05:59:13.032Z,16.13
2023-05-09T06:00:10.649Z,15.80
2023-05-09T06:01:10.508Z,15.72
2023-05-09T06:02:10.663Z,15.77
2023-05-09T06:03:10.529Z,15.92
2023-05-09T06:04:10.698Z,15.73
2023-05-09T06:05:10.464Z,15.55
2023-05-09T06:06:10.401Z,15.58
2023-05-09T06:07:10.642Z,15.58
2023-05-09T06:08:11.154Z,15.36
2023-05-09T06:09:10.538Z,15.12
2023-05-09T06:10:10.686Z,14.70
2023-05-09T06:11:10.506Z,14.50
2023-05-09T06:12:10.317Z,14.55
2023-05-09T06:13:10.661Z,14.15
2023-05-09T06:14:10.355Z,13.56
2023-05-09T06:15:10.411Z,13.72
2023-05-09T06:17:10.451Z,14.00
2023-05-09T06:18:10.514Z,13.75
2023-05-09T06:19:10.550Z,14.03
2023-05-09T06:20:10.389Z,14.01
2023-05-09T06:21:10.197Z,14.15
2023-05-09T06:22:10.348Z,13.93
2023-05-09T06:23:09.517Z,13.46
2023-05-09T06:24:19.828Z,13.41
2023-05-09T06:25:11.299Z,13.53
2023-05-09T06:26:10.357Z,13.59
2023-05-09T06:27:10.167Z,13.78
2023-05-09T06:28:10.298Z,14.05
2023-05-09T06:29:10.277Z,14.26
2023-05-09T06:56:49.254Z,16.12
2023-05-09T06:57:30.081Z,15.97
2023-05-09T06:58:30.213Z,15.87
2023-05-09T06:59:29.952Z,15.46
2023-05-09T07:00:29.973Z,15.03
2023-05-09T07:01:30.243Z,15.25
2023-05-09T07:02:31.363Z,15.36
2023-05-09T07:03:30.238Z,15.95
2023-05-09T07:04:30.770Z,16.31
2023-05-09T07:05:30.627Z,16.57
2023-05-09T07:06:30.594Z,16.76
2023-05-09T07:07:30.678Z,16.68
2023-05-09T07:08:29.837Z,17.04
2023-05-09T07:09:30.029Z,17.37
2023-05-09T07:10:29.927Z,16.75
2023-05-09T07:11:30.279Z,16.80
2023-05-09T07:12:29.966Z,16.80
2023-05-09T07:13:30.127Z,17.14
2023-05-09T07:14:29.849Z,16.72
2023-05-09T07:15:40.445Z,16.39
2023-05-09T07:16:29.944Z,16.38
2023-05-09T07:17:29.699Z,16.47
2023-05-09T07:18:29.910Z,16.09
2023-05-09T07:19:29.688Z,16.01
2023-05-09T07:20:29.880Z,15.92
2023-05-09T07:21:29.758Z,16.16
2023-05-09T07:22:31.765Z,16.25
2023-05-09T07:23:29.871Z,16.49
2023-05-09T07:24:30.390Z,16.44
2023-05-09T07:25:29.709Z,16.72
2023-05-09T07:26:29.772Z,16.43
2023-05-09T07:27:29.759Z,16.38
2023-05-09T07:28:29.737Z,16.28
2023-05-09T07:29:29.671Z,16.32
2023-05-09T07:30:29.576Z,15.92
2023-05-09T07:31:29.866Z,15.90
2023-05-09T07:32:29.599Z,15.82
2023-05-09T07:33:29.712Z,15.69
2023-05-09T07:34:29.559Z,15.64
2023-05-09T07:35:30.328Z,15.70
2023-05-09T07:36:29.617Z,15.77
2023-05-09T07:37:29.959Z,16.02
2023-05-09T07:38:29.512Z,16.17
2023-05-09T07:39:29.741Z,15.80
2023-05-09T07:40:29.666Z,16.47
2023-05-09T07:41:29.727Z,16.57
2023-05-09T07:42:29.688Z,17.11
2023-05-09T07:43:29.628Z,17.80
2023-05-09T07:44:29.681Z,18.44
2023-05-09T07:45:29.519Z,18.88
2023-05-09T07:46:29.815Z,19.30
2023-05-09T07:47:29.502Z,19.45
2023-05-09T07:48:29.684Z,19.82
2023-05-09T07:49:30.051Z,20.44
2023-05-09T07:50:28.722Z,20.84
2023-05-09T07:51:29.370Z,21.08
2023-05-09T07:52:29.583Z,20.59
2023-05-09T07:53:29.365Z,19.94
2023-05-09T07:54:29.567Z,19.52
2023-05-09T07:55:29.945Z,20.22
2023-05-09T07:56:29.241Z,20.63
2023-05-09T07:57:29.686Z,21.26
2023-05-09T07:58:30.110Z,20.62
2023-05-09T07:59:30.492Z,20.15
2023-05-09T08:00:29.732Z,19.52
2023-05-09T08:01:29.992Z,19.44
2023-05-09T08:02:29.922Z,20.24
2023-05-09T08:03:29.454Z,19.91
2023-05-09T08:04:29.564Z,19.26
2023-05-09T08:05:29.490Z,19.19
2023-05-09T08:06:28.823Z,18.95
2023-05-09T08:07:29.500Z,18.98
2023-05-09T08:08:28.554Z,18.88
2023-05-09T08:09:30.110Z,18.63
2023-05-09T08:10:30.063Z,19.05
2023-05-09T08:11:29.511Z,19.44
2023-05-09T08:12:30.279Z,19.73
2023-05-09T08:13:30.269Z,18.62
2023-05-09T08:14:29.527Z,19.31
2023-05-09T08:15:28.449Z,19.86
2023-05-09T08:16:29.455Z,19.96
2023-05-09T08:17:29.523Z,20.66
2023-05-09T08:18:29.512Z,20.65
2023-05-09T08:19:29.080Z,21.26
2023-05-09T08:20:29.214Z,20.99
2023-05-09T08:21:28.986Z,20.53
2023-05-09T08:22:29.387Z,20.41
2023-05-09T08:23:29.330Z,20.07
2023-05-09T08:24:29.337Z,19.73
2023-05-09T08:25:29.076Z,19.54
2023-05-09T08:26:29.409Z,19.46
2023-05-09T08:27:29.003Z,20.03
2023-05-09T08:28:29.704Z,20.21
2023-05-09T08:29:28.307Z,20.52
2023-05-09T08:30:29.204Z,20.14
2023-05-09T08:31:29.148Z,20.03
2023-05-09T08:32:28.940Z,20.26
2023-05-09T08:33:29.097Z,19.89
2023-05-09T08:34:30.146Z,20.18
2023-05-09T08:35:29.071Z,20.59
2023-05-09T08:36:29.016Z,20.37
2023-05-09T08:37:29.125Z,20.90
2023-05-09T08:38:29.028Z,20.37
2023-05-09T08:39:29.010Z,19.97
2023-05-09T08:40:28.861Z,20.17
2023-05-09T08:41:29.047Z,20.89
2023-05-09T08:42:28.868Z,20.85
2023-05-09T08:43:28.998Z,21.35
2023-05-09T08:44:28.869Z,21.57
2023-05-09T08:45:28.970Z,21.58
2023-05-09T08:46:28.933Z,22.10
2023-05-09T08:47:28.731Z,21.88
2023-05-09T08:48:28.945Z,22.45
2023-05-09T08:49:28.914Z,22.11
2023-05-09T08:50:29.089Z,21.43
2023-05-09T08:51:28.667Z,21.98
2023-05-09T08:52:28.928Z,22.07
2023-05-09T08:53:29.095Z,22.23
2023-05-09T08:54:29.557Z,22.01
2023-05-09T08:55:29.824Z,22.32
2023-05-09T08:56:28.967Z,22.80
2023-05-09T08:57:29.214Z,23.20
2023-05-09T08:58:29.145Z,23.18
2023-05-09T08:59:29.534Z,23.03
2023-05-09T09:00:29.894Z,23.31
2023-05-09T09:01:28.888Z,23.73
2023-05-09T09:02:28.988Z,23.47
2023-05-09T09:03:29.091Z,23.05
2023-05-09T09:04:29.628Z,23.37
2023-05-09T09:05:40.584Z,23.21
2023-05-09T09:06:29.475Z,23.21
2023-05-09T09:07:31.039Z,23.88
2023-05-09T09:08:28.605Z,24.17
2023-05-09T09:09:28.987Z,24.55
2023-05-09T09:10:29.638Z,23.55
2023-05-09T09:11:28.845Z,23.20
2023-05-09T09:12:29.275Z,23.89
2023-05-09T09:13:29.471Z,23.48
2023-05-09T09:14:29.373Z,23.28
2023-05-09T09:15:28.794Z,23.21
2023-05-09T09:16:27.891Z,23.40
2023-05-09T09:17:29.289Z,23.68
2023-05-09T09:18:27.868Z,23.17
2023-05-09T09:19:28.927Z,23.38
2023-05-09T09:20:27.810Z,23.34
2023-05-09T09:21:27.769Z,23.17
2023-05-09T09:22:29.276Z,22.87
2023-05-09T09:23:29.245Z,23.21
2023-05-09T09:24:29.234Z,23.24
2023-05-09T09:25:29.252Z,22.26
2023-05-09T09:26:28.515Z,22.17
2023-05-09T09:27:28.776Z,22.30
2023-05-09T09:28:28.608Z,22.73
2023-05-09T09:29:29.316Z,22.28
2023-05-09T09:30:28.598Z,22.51
2023-05-09T09:31:29.155Z,22.75
2023-05-09T09:32:28.633Z,22.59
2023-05-09T09:33:28.682Z,22.26
2023-05-09T09:34:29.116Z,22.91
2023-05-09T09:35:29.393Z,23.21
2023-05-09T09:36:28.706Z,24.00
2023-05-09T09:37:28.535Z,23.73
2023-05-09T09:38:29.335Z,22.98
2023-05-09T09:39:27.596Z,23.63
2023-05-09T09:40:27.741Z,24.13
2023-05-09T09:41:28.474Z,23.46
2023-05-09T09:42:29.085Z,23.95
2023-05-09T09:43:28.562Z,23.09
2023-05-09T09:44:27.526Z,22.90
2023-05-09T09:45:28.401Z,23.33
2023-05-09T09:46:28.487Z,24.00
2023-05-09T09:47:27.548Z,24.13
2023-05-09T09:48:28.205Z,23.89
2023-05-09T09:49:28.126Z,23.65
2023-05-09T09:50:28.426Z,23.15
2023-05-09T09:51:28.195Z,22.48
2023-05-09T09:52:29.070Z,22.40
2023-05-09T09:53:28.956Z,22.43
2023-05-09T09:54:28.425Z,22.90
2023-05-09T09:55:28.126Z,22.51
2023-05-09T09:56:27.405Z,23.07
2023-05-09T09:57:28.256Z,22.69
2023-05-09T09:58:28.744Z,23.05
2023-05-09T09:59:28.805Z,23.10
2023-05-09T10:00:28.349Z,22.95
2023-05-09T10:01:28.938Z,22.99
2023-05-09T10:02:28.251Z,22.50
2023-05-09T10:03:27.364Z,22.75
2023-05-09T10:04:27.997Z,22.50
2023-05-09T10:05:28.479Z,22.43
2023-05-09T10:06:27.894Z,22.93
2023-05-09T10:07:29.496Z,22.08
2023-05-09T10:08:28.295Z,22.85
2023-05-09T10:09:27.260Z,22.60
2023-05-09T10:10:28.886Z,22.62
2023-05-09T10:11:28.515Z,22.40
2023-05-09T10:12:28.478Z,22.50
2023-05-09T10:13:28.904Z,22.65
2023-05-09T10:14:28.295Z,22.98
2023-05-09T10:15:30.062Z,23.34
2023-05-09T10:16:42.556Z,23.02
2023-05-09T10:17:28.260Z,22.45
2023-05-09T10:18:27.490Z,22.88
2023-05-09T10:19:27.807Z,23.15
2023-05-09T10:20:28.015Z,23.28
2023-05-09T10:21:27.145Z,23.51
2023-05-09T10:22:28.227Z,23.34
2023-05-09T10:23:28.269Z,23.56
2023-05-09T10:24:27.911Z,23.36
2023-05-09T10:25:28.576Z,23.65
2023-05-09T10:26:28.198Z,23.65
2023-05-09T10:27:27.147Z,24.00
2023-05-09T10:28:28.583Z,24.33
2023-05-09T10:29:27.784Z,23.83
2023-05-09T10:30:27.034Z,23.70
2023-05-09T10:31:28.039Z,22.93
2023-05-09T10:32:27.914Z,22.99
2023-05-09T10:33:27.966Z,23.36
2023-05-09T10:34:28.532Z,23.36
2023-05-09T10:35:27.988Z,23.20
2023-05-09T10:36:26.991Z,22.99
2023-05-09T10:37:28.402Z,23.40
2023-05-09T10:38:28.545Z,22.98
2023-05-09T10:39:28.122Z,23.58
2023-05-09T10:40:27.659Z,23.77
2023-05-09T10:41:28.494Z,23.46
2023-05-09T10:42:27.822Z,23.02
2023-05-09T10:43:28.601Z,22.75
2023-05-09T10:44:29.562Z,22.05
2023-05-09T10:45:28.281Z,21.57
2023-05-09T10:46:27.723Z,21.92
2023-05-09T10:47:27.696Z,22.04
2023-05-09T10:48:27.705Z,21.63
2023-05-09T10:49:26.881Z,21.81
2023-05-09T10:50:27.654Z,20.85
2023-05-09T10:51:27.532Z,20.66
2023-05-09T10:52:27.611Z,21.06
2023-05-09T10:53:27.431Z,20.87
2023-05-09T10:54:28.574Z,20.53
2023-05-09T10:55:28.662Z,20.19
2023-05-09T10:56:27.609Z,20.15
2023-05-09T10:57:26.760Z,20.11
2023-05-09T10:58:27.607Z,20.21
2023-05-09T10:59:27.468Z,19.85
2023-05-09T11:00:27.679Z,19.66
2023-05-09T11:01:26.782Z,19.33
2023-05-09T11:02:27.640Z,19.60
2023-05-09T11:03:26.799Z,19.71
2023-05-09T11:04:27.629Z,19.36
2023-05-09T11:05:28.251Z,19.14
2023-05-09T11:06:26.755Z,18.95
2023-05-09T11:07:27.443Z,19.04
2023-05-09T11:08:27.371Z,19.18
2023-05-09T11:09:26.792Z,19.16
2023-05-09T11:10:28.319Z,19.16
2023-05-09T11:11:26.661Z,19.27
2023-05-09T11:12:27.333Z,18.98
2023-05-09T11:13:27.533Z,18.83
2023-05-09T11:14:27.306Z,18.95
2023-05-09T11:15:28.104Z,19.11
2023-05-09T11:16:27.440Z,18.88
2023-05-09T11:17:27.452Z,18.92
2023-05-09T11:18:26.571Z,18.86
2023-05-09T11:19:28.116Z,18.80
2023-05-09T11:20:26.515Z,18.75
2023-05-09T11:21:27.195Z,18.67
2023-05-09T11:22:27.273Z,18.60
2023-05-09T11:23:26.491Z,18.67
2023-05-09T11:24:27.275Z,18.80
2023-05-09T11:25:27.754Z,18.81
2023-05-09T11:26:27.355Z,18.55
2023-05-09T11:27:27.105Z,18.46
2023-05-09T11:28:27.374Z,18.46
2023-05-09T11:29:26.416Z,18.53
2023-05-09T11:30:27.224Z,18.63
2023-05-09T11:31:26.498Z,18.52
2023-05-09T11:32:27.329Z,18.48
2023-05-09T11:33:27.134Z,18.38
2023-05-09T11:34:27.364Z,18.62
2023-05-09T11:35:28.717Z,18.95
2023-05-09T11:36:26.353Z,19.00
2023-05-09T11:37:27.155Z,18.99
2023-05-09T11:38:27.934Z,19.00
2023-05-09T11:39:27.123Z,19.12
2023-05-09T11:40:26.964Z,18.90
2023-05-09T11:41:27.091Z,18.88
2023-05-09T11:42:27.054Z,18.68
2023-05-09T11:43:27.135Z,18.50
2023-05-09T11:44:26.975Z,18.46
2023-05-09T11:45:26.284Z,18.37
2023-05-09T11:46:27.311Z,18.55
2023-05-09T11:47:29.109Z,18.56
2023-05-09T11:48:26.955Z,18.50
2023-05-09T11:49:26.582Z,18.63
2023-05-09T11:50:27.644Z,18.80
2023-05-09T11:51:27.313Z,18.88
2023-05-09T11:52:27.043Z,19.00
2023-05-09T11:53:26.257Z,19.18
2023-05-09T11:54:27.293Z,19.19
2023-05-09T11:55:26.787Z,19.19
2023-05-09T11:56:28.112Z,19.19
2023-05-09T11:57:26.908Z,19.24
2023-05-09T11:58:26.121Z,19.19
2023-05-09T11:59:26.806Z,19.15
2023-05-09T12:00:27.566Z,19.16
2023-05-09T12:01:26.794Z,19.18
2023-05-09T12:02:26.130Z,19.14
2023-05-09T12:03:27.230Z,18.98
2023-05-09T12:04:27.107Z,19.00
2023-05-09T12:05:26.308Z,19.04
2023-05-09T12:06:27.281Z,19.09
2023-05-09T12:07:26.776Z,19.04
2023-05-09T12:08:26.819Z,18.86
2023-05-09T12:09:26.892Z,18.92
2023-05-09T12:10:26.682Z,18.98
2023-05-09T12:11:26.780Z,18.98
2023-05-09T12:12:26.788Z,18.95
2023-05-09T12:13:26.901Z,18.88
2023-05-09T12:14:26.670Z,18.63
2023-05-09T12:15:26.758Z,18.31
2023-05-09T12:16:26.825Z,18.19
2023-05-09T12:17:25.992Z,18.18
2023-05-09T12:18:26.651Z,18.33
2023-05-09T12:19:26.863Z,18.46
2023-05-09T12:20:26.670Z,18.55
2023-05-09T12:21:25.930Z,18.59
2023-05-09T12:22:26.636Z,18.44
2023-05-09T12:23:26.440Z,18.52
2023-05-09T12:24:26.600Z,18.78
2023-05-09T12:25:27.002Z,18.99
2023-05-09T12:26:26.740Z,18.86
2023-05-09T12:27:26.569Z,18.77
2023-05-09T12:28:26.642Z,18.75
2023-05-09T12:29:26.594Z,18.80
2023-05-09T12:30:26.631Z,18.92
2023-05-09T12:31:26.650Z,18.96
2023-05-09T12:32:26.628Z,19.00
2023-05-09T12:33:25.800Z,19.00
2023-05-09T12:34:26.631Z,18.88
2023-05-09T12:35:26.650Z,18.71
2023-05-09T12:36:26.551Z,18.46
2023-05-09T12:37:27.812Z,18.46
2023-05-09T12:38:26.362Z,18.49
2023-05-09T12:39:25.718Z,18.55
2023-05-09T12:40:27.521Z,18.70
2023-05-09T12:42:26.350Z,18.68
2023-05-09T12:43:26.579Z,18.80
2023-05-09T12:44:26.311Z,18.98
2023-05-09T12:45:26.492Z,19.07
2023-05-09T12:46:27.181Z,18.99
2023-05-09T12:47:26.499Z,18.85
2023-05-09T12:48:26.372Z,18.78
2023-05-09T12:49:26.459Z,18.86
2023-05-09T12:50:26.309Z,18.93
2023-05-09T12:51:25.578Z,19.04
2023-05-09T12:52:26.850Z,19.14
2023-05-09T12:53:26.552Z,19.05
2023-05-09T12:54:25.709Z,18.92
2023-05-09T12:55:26.930Z,18.95
2023-05-09T12:56:26.713Z,18.89
2023-05-09T12:57:26.227Z,18.88
2023-05-09T12:58:25.511Z,18.95
2023-05-09T12:59:26.174Z,18.93
2023-05-09T13:00:26.384Z,18.71
2023-05-09T13:01:26.167Z,18.58
2023-05-09T13:02:25.525Z,18.49
2023-05-09T13:03:27.142Z,18.44
2023-05-09T13:04:27.342Z,18.41
2023-05-09T13:05:26.190Z,18.44
2023-05-09T13:06:25.410Z,18.44
2023-05-09T13:07:27.021Z,18.43
2023-05-09T13:08:26.272Z,18.44
2023-05-09T13:09:26.186Z,18.59
2023-05-09T13:10:26.005Z,18.71
2023-05-09T13:11:26.192Z,18.71
2023-05-09T13:12:25.371Z,18.75
2023-05-09T13:13:27.000Z,18.81
2023-05-09T13:14:26.553Z,18.92
2023-05-09T13:15:26.240Z,18.90
2023-05-09T13:16:26.009Z,18.83
2023-05-09T13:17:26.373Z,18.71
2023-05-09T13:18:25.985Z,18.68
2023-05-09T13:19:26.314Z,18.68
2023-05-09T13:20:25.275Z,18.70
2023-05-09T13:21:27.000Z,18.81
2023-05-09T13:22:26.131Z,18.83
2023-05-09T13:23:25.288Z,18.83
2023-05-09T13:24:26.129Z,18.88
2023-05-09T13:25:25.294Z,18.98
2023-05-09T13:26:26.089Z,18.95
2023-05-09T13:27:25.205Z,18.81
2023-05-09T13:28:26.060Z,18.60
2023-05-09T13:29:25.813Z,18.53
2023-05-09T13:30:26.760Z,18.58